Hollidaysburg, Pennsylvania
Current Conditions -  °F | °C
As of 7:53 PM on Wednesday 26 Nov 2014 (Local Time) from KAOO Reporting Station
Haze Haze  
Wind Chill: 26°   Ceiling: 900
Heat Index: 32°   Visibility: 6mi
Dew Point: 31°   Wind: 7mph
Humidity: 96%   Direction: 30°NNE
Pressure: 29.95"   Gusts: NA
Location:  40.43°N, 78.39°W
Report Text: KAOO 270053Z AUTO 03006KT 6SM BR OVC009 00/M01 A2995 RMK AO2 CIG 006V011 SLP158 P0001 T00001006
Loading
Personal Weather Stations






























Interactive Weather Map New forecast layout! Learn more

10-Day Weather Forecast

Advertisements
Track Severe Weather on mobile